sensor_id;sensor_type;location;lat;lon;timestamp;temperature;humidity
34574;DHT22;20809;49.594;8.734;2023-03-23T00:02:55;14.10;99.90
34574;DHT22;20809;49.594;8.734;2023-03-23T00:06:02;14.20;99.90
34574;DHT22;20809;49.594;8.734;2023-03-23T00:09:15;14.10;99.90
34574;DHT22;20809;49.594;8.734;2023-03-23T00:12:31;14.10;99.90
34574;DHT22;20809;49.594;8.734;2023-03-23T00:15:39;14.10;99.90
34574;DHT22;20809;49.594;8.734;2023-03-23T00:18:45;14.20;99.90
34574;DHT22;20809;49.594;8.734;2023-03-23T00:21:50;14.10;99.90
34574;DHT22;20809;49.594;8.734;2023-03-23T00:24:57;14.10;99.90
34574;DHT22;20809;49.594;8.734;2023-03-23T00:28:07;14.20;99.90
34574;DHT22;20809;49.594;8.734;2023-03-23T00:31:16;14.20;99.90
34574;DHT22;20809;49.594;8.734;2023-03-23T00:34:23;14.20;99.90
34574;DHT22;20809;49.594;8.734;2023-03-23T00:37:28;14.20;99.90
34574;DHT22;20809;49.594;8.734;2023-03-23T00:40:47;14.20;99.90
34574;DHT22;20809;49.594;8.734;2023-03-23T00:43:54;14.10;99.90
34574;DHT22;20809;49.594;8.734;2023-03-23T00:47:05;14.10;99.90
34574;DHT22;20809;49.594;8.734;2023-03-23T00:50:17;14.10;99.90
34574;DHT22;20809;49.594;8.734;2023-03-23T00:53:26;14.10;99.90
34574;DHT22;20809;49.594;8.734;2023-03-23T00:56:34;14.10;99.90
34574;DHT22;20809;49.594;8.734;2023-03-23T00:59:39;14.10;99.90
34574;DHT22;20809;49.594;8.734;2023-03-23T01:02:44;14.10;99.90
34574;DHT22;20809;49.594;8.734;2023-03-23T01:05:46;14.10;99.90
34574;DHT22;20809;49.594;8.734;2023-03-23T01:08:51;14.10;99.90
34574;DHT22;20809;49.594;8.734;2023-03-23T01:11:57;14.20;99.90
34574;DHT22;20809;49.594;8.734;2023-03-23T01:15:04;14.20;99.90
34574;DHT22;20809;49.594;8.734;2023-03-23T01:18:13;14.10;99.90
34574;DHT22;20809;49.594;8.734;2023-03-23T01:21:23;14.10;99.90
34574;DHT22;20809;49.594;8.734;2023-03-23T01:24:38;14.10;99.90
34574;DHT22;20809;49.594;8.734;2023-03-23T01:27:41;14.00;99.90
34574;DHT22;20809;49.594;8.734;2023-03-23T01:30:45;14.10;99.90
34574;DHT22;20809;49.594;8.734;2023-03-23T01:33:52;14.00;99.90
34574;DHT22;20809;49.594;8.734;2023-03-23T01:36:58;14.00;99.90
34574;DHT22;20809;49.594;8.734;2023-03-23T01:40:00;14.10;99.90
34574;DHT22;20809;49.594;8.734;2023-03-23T01:43:01;14.00;99.90
34574;DHT22;20809;49.594;8.734;2023-03-23T01:46:08;14.00;99.90
34574;DHT22;20809;49.594;8.734;2023-03-23T01:49:46;14.00;99.90
34574;DHT22;20809;49.594;8.734;2023-03-23T01:52:55;13.90;99.90
34574;DHT22;20809;49.594;8.734;2023-03-23T01:59:08;13.90;99.90
34574;DHT22;20809;49.594;8.734;2023-03-23T02:02:13;13.90;99.90
34574;DHT22;20809;49.594;8.734;2023-03-23T02:05:31;13.90;99.90
34574;DHT22;20809;49.594;8.734;2023-03-23T02:08:48;14.00;99.90
34574;DHT22;20809;49.594;8.734;2023-03-23T02:11:54;14.00;99.90
34574;DHT22;20809;49.594;8.734;2023-03-23T02:15:02;14.10;99.90
34574;DHT22;20809;49.594;8.734;2023-03-23T02:18:28;14.10;99.90
34574;DHT22;20809;49.594;8.734;2023-03-23T02:21:55;14.00;99.90
34574;DHT22;20809;49.594;8.734;2023-03-23T02:25:44;14.00;99.90
34574;DHT22;20809;49.594;8.734;2023-03-23T02:29:28;13.90;99.90
34574;DHT22;20809;49.594;8.734;2023-03-23T02:36:37;14.00;99.90
34574;DHT22;20809;49.594;8.734;2023-03-23T02:39:56;14.00;99.90
34574;DHT22;20809;49.594;8.734;2023-03-23T02:43:02;14.10;99.90
34574;DHT22;20809;49.594;8.734;2023-03-23T02:46:16;14.10;99.90
34574;DHT22;20809;49.594;8.734;2023-03-23T02:49:23;14.10;99.90
34574;DHT22;20809;49.594;8.734;2023-03-23T02:52:39;14.00;99.90
34574;DHT22;20809;49.594;8.734;2023-03-23T02:55:44;14.00;99.90
34574;DHT22;20809;49.594;8.734;2023-03-23T02:58:54;14.00;99.90
34574;DHT22;20809;49.594;8.734;2023-03-23T03:02:22;13.90;99.90
34574;DHT22;20809;49.594;8.734;2023-03-23T03:09:26;13.90;99.90
34574;DHT22;20809;49.594;8.734;2023-03-23T03:22:29;13.70;99.90
34574;DHT22;20809;49.594;8.734;2023-03-23T03:25:41;13.70;99.90
34574;DHT22;20809;49.594;8.734;2023-03-23T03:28:52;13.70;99.90
34574;DHT22;20809;49.594;8.734;2023-03-23T03:31:58;13.70;99.90
34574;DHT22;20809;49.594;8.734;2023-03-23T03:35:05;13.80;99.90
34574;DHT22;20809;49.594;8.734;2023-03-23T03:38:11;13.80;99.90
34574;DHT22;20809;49.594;8.734;2023-03-23T03:41:20;13.80;99.90
34574;DHT22;20809;49.594;8.734;2023-03-23T03:44:23;13.80;99.90
34574;DHT22;20809;49.594;8.734;2023-03-23T03:47:27;13.80;99.90
34574;DHT22;20809;49.594;8.734;2023-03-23T03:50:31;13.80;99.90
34574;DHT22;20809;49.594;8.734;2023-03-23T03:53:34;13.80;99.90
34574;DHT22;20809;49.594;8.734;2023-03-23T03:56:40;13.80;99.90
34574;DHT22;20809;49.594;8.734;2023-03-23T03:59:48;13.80;99.90
34574;DHT22;20809;49.594;8.734;2023-03-23T04:02:51;13.80;99.90
34574;DHT22;20809;49.594;8.734;2023-03-23T04:05:57;13.80;99.90
34574;DHT22;20809;49.594;8.734;2023-03-23T04:09:06;13.80;99.90
34574;DHT22;20809;49.594;8.734;2023-03-23T04:12:13;13.80;99.90
34574;DHT22;20809;49.594;8.734;2023-03-23T04:15:18;13.80;99.90
34574;DHT22;20809;49.594;8.734;2023-03-23T04:18:23;13.80;99.90
34574;DHT22;20809;49.594;8.734;2023-03-23T04:21:30;13.80;99.90
34574;DHT22;20809;49.594;8.734;2023-03-23T04:24:37;13.80;99.90
34574;DHT22;20809;49.594;8.734;2023-03-23T04:27:44;13.80;99.90
34574;DHT22;20809;49.594;8.734;2023-03-23T04:30:47;13.80;99.90
34574;DHT22;20809;49.594;8.734;2023-03-23T04:33:52;13.80;99.90
34574;DHT22;20809;49.594;8.734;2023-03-23T04:36:59;13.80;99.90
34574;DHT22;20809;49.594;8.734;2023-03-23T04:40:01;13.70;99.90
34574;DHT22;20809;49.594;8.734;2023-03-23T04:43:14;13.70;99.90
34574;DHT22;20809;49.594;8.734;2023-03-23T04:46:25;13.60;99.90
34574;DHT22;20809;49.594;8.734;2023-03-23T04:49:33;13.60;99.90
34574;DHT22;20809;49.594;8.734;2023-03-23T04:52:40;13.60;99.90
34574;DHT22;20809;49.594;8.734;2023-03-23T04:55:50;13.50;99.90
34574;DHT22;20809;49.594;8.734;2023-03-23T04:59:03;13.50;99.90
34574;DHT22;20809;49.594;8.734;2023-03-23T05:02:14;13.50;99.90
34574;DHT22;20809;49.594;8.734;2023-03-23T05:05:23;13.40;99.90
34574;DHT22;20809;49.594;8.734;2023-03-23T05:08:32;13.30;99.90
34574;DHT22;20809;49.594;8.734;2023-03-23T05:11:35;13.20;99.90
34574;DHT22;20809;49.594;8.734;2023-03-23T05:14:44;13.10;99.90
34574;DHT22;20809;49.594;8.734;2023-03-23T05:17:58;13.00;99.90
34574;DHT22;20809;49.594;8.734;2023-03-23T05:21:07;12.90;99.90
34574;DHT22;20809;49.594;8.734;2023-03-23T05:24:19;12.90;99.90
34574;DHT22;20809;49.594;8.734;2023-03-23T05:27:20;12.80;99.90
34574;DHT22;20809;49.594;8.734;2023-03-23T05:30:27;12.90;99.90
34574;DHT22;20809;49.594;8.734;2023-03-23T05:33:33;12.90;99.90
34574;DHT22;20809;49.594;8.734;2023-03-23T05:36:55;12.90;99.90
34574;DHT22;20809;49.594;8.734;2023-03-23T05:40:07;12.90;99.90
34574;DHT22;20809;49.594;8.734;2023-03-23T05:43:14;13.00;99.90
34574;DHT22;20809;49.594;8.734;2023-03-23T05:46:26;13.00;99.90
34574;DHT22;20809;49.594;8.734;2023-03-23T05:49:33;13.10;99.90
34574;DHT22;20809;49.594;8.734;2023-03-23T05:52:44;13.10;99.90
34574;DHT22;20809;49.594;8.734;2023-03-23T05:55:50;13.10;99.90
34574;DHT22;20809;49.594;8.734;2023-03-23T05:59:02;13.10;99.90
34574;DHT22;20809;49.594;8.734;2023-03-23T06:02:06;13.10;99.90
34574;DHT22;20809;49.594;8.734;2023-03-23T06:05:11;13.10;99.90
34574;DHT22;20809;49.594;8.734;2023-03-23T06:08:17;13.10;99.90
34574;DHT22;20809;49.594;8.734;2023-03-23T06:11:21;13.20;99.90
34574;DHT22;20809;49.594;8.734;2023-03-23T06:14:37;13.20;99.90
34574;DHT22;20809;49.594;8.734;2023-03-23T06:17:42;13.20;99.90
34574;DHT22;20809;49.594;8.734;2023-03-23T06:20:52;13.20;99.90
34574;DHT22;20809;49.594;8.734;2023-03-23T06:23:56;13.20;99.90
34574;DHT22;20809;49.594;8.734;2023-03-23T06:27:03;13.20;99.90
34574;DHT22;20809;49.594;8.734;2023-03-23T06:30:19;13.20;99.90
34574;DHT22;20809;49.594;8.734;2023-03-23T06:33:30;13.20;99.90
34574;DHT22;20809;49.594;8.734;2023-03-23T06:36:35;13.20;99.90
34574;DHT22;20809;49.594;8.734;2023-03-23T06:39:41;13.10;99.90
34574;DHT22;20809;49.594;8.734;2023-03-23T06:42:52;13.10;99.90
34574;DHT22;20809;49.594;8.734;2023-03-23T06:45:59;13.20;99.90
34574;DHT22;20809;49.594;8.734;2023-03-23T06:49:04;13.30;99.90
34574;DHT22;20809;49.594;8.734;2023-03-23T06:52:11;13.30;99.90
34574;DHT22;20809;49.594;8.734;2023-03-23T06:55:24;13.30;99.90
34574;DHT22;20809;49.594;8.734;2023-03-23T06:58:32;13.40;99.90
34574;DHT22;20809;49.594;8.734;2023-03-23T07:01:39;13.30;99.90
34574;DHT22;20809;49.594;8.734;2023-03-23T07:04:41;13.30;99.90
34574;DHT22;20809;49.594;8.734;2023-03-23T07:07:45;13.30;99.90
34574;DHT22;20809;49.594;8.734;2023-03-23T07:10:54;13.40;99.90
34574;DHT22;20809;49.594;8.734;2023-03-23T07:13:58;13.40;99.90
34574;DHT22;20809;49.594;8.734;2023-03-23T07:16:59;13.40;99.90
34574;DHT22;20809;49.594;8.734;2023-03-23T07:20:06;13.30;99.90
34574;DHT22;20809;49.594;8.734;2023-03-23T07:23:13;13.20;99.90
34574;DHT22;20809;49.594;8.734;2023-03-23T07:26:17;12.90;99.90
34574;DHT22;20809;49.594;8.734;2023-03-23T07:29:22;12.60;99.90
34574;DHT22;20809;49.594;8.734;2023-03-23T07:32:27;12.40;99.90
34574;DHT22;20809;49.594;8.734;2023-03-23T07:35:39;12.30;99.90
34574;DHT22;20809;49.594;8.734;2023-03-23T07:38:48;12.30;99.90
34574;DHT22;20809;49.594;8.734;2023-03-23T07:41:53;12.30;99.90
34574;DHT22;20809;49.594;8.734;2023-03-23T07:44:58;12.30;99.90
34574;DHT22;20809;49.594;8.734;2023-03-23T07:48:01;12.30;99.90
34574;DHT22;20809;49.594;8.734;2023-03-23T07:51:03;12.40;99.90
34574;DHT22;20809;49.594;8.734;2023-03-23T07:54:10;12.50;99.90
34574;DHT22;20809;49.594;8.734;2023-03-23T07:57:18;12.60;99.90
34574;DHT22;20809;49.594;8.734;2023-03-23T08:00:25;12.70;99.90
34574;DHT22;20809;49.594;8.734;2023-03-23T08:03:30;12.80;99.90
34574;DHT22;20809;49.594;8.734;2023-03-23T08:06:35;12.90;99.90
34574;DHT22;20809;49.594;8.734;2023-03-23T08:09:46;12.80;99.90
34574;DHT22;20809;49.594;8.734;2023-03-23T08:12:58;12.90;99.90
34574;DHT22;20809;49.594;8.734;2023-03-23T08:16:09;13.20;99.90
34574;DHT22;20809;49.594;8.734;2023-03-23T08:19:14;13.40;99.90
34574;DHT22;20809;49.594;8.734;2023-03-23T08:22:20;13.50;99.90
34574;DHT22;20809;49.594;8.734;2023-03-23T08:25:26;13.50;99.90
34574;DHT22;20809;49.594;8.734;2023-03-23T08:28:30;13.30;99.90
34574;DHT22;20809;49.594;8.734;2023-03-23T08:31:35;13.30;99.90
34574;DHT22;20809;49.594;8.734;2023-03-23T08:34:38;13.20;99.90
34574;DHT22;20809;49.594;8.734;2023-03-23T08:37:48;13.20;99.90
34574;DHT22;20809;49.594;8.734;2023-03-23T08:41:00;13.10;99.90
34574;DHT22;20809;49.594;8.734;2023-03-23T08:44:05;13.10;99.90
34574;DHT22;20809;49.594;8.734;2023-03-23T08:47:11;13.10;99.90
34574;DHT22;20809;49.594;8.734;2023-03-23T08:50:16;12.90;99.90
34574;DHT22;20809;49.594;8.734;2023-03-23T08:53:20;13.00;99.90
34574;DHT22;20809;49.594;8.734;2023-03-23T08:56:25;13.10;99.90
34574;DHT22;20809;49.594;8.734;2023-03-23T08:59:42;13.20;99.90
34574;DHT22;20809;49.594;8.734;2023-03-23T09:02:52;13.20;99.90
34574;DHT22;20809;49.594;8.734;2023-03-23T09:06:01;13.30;99.90
34574;DHT22;20809;49.594;8.734;2023-03-23T09:09:07;13.20;99.90
34574;DHT22;20809;49.594;8.734;2023-03-23T09:12:11;13.20;99.90
34574;DHT22;20809;49.594;8.734;2023-03-23T09:15:17;13.10;99.90
34574;DHT22;20809;49.594;8.734;2023-03-23T09:18:22;13.00;99.90
34574;DHT22;20809;49.594;8.734;2023-03-23T09:21:28;13.00;99.90
34574;DHT22;20809;49.594;8.734;2023-03-23T09:24:38;13.10;99.90
34574;DHT22;20809;49.594;8.734;2023-03-23T09:27:44;13.30;99.90
34574;DHT22;20809;49.594;8.734;2023-03-23T09:31:02;13.30;99.90
34574;DHT22;20809;49.594;8.734;2023-03-23T09:34:15;13.30;99.90
34574;DHT22;20809;49.594;8.734;2023-03-23T09:37:21;13.30;99.90
34574;DHT22;20809;49.594;8.734;2023-03-23T09:50:25;13.50;99.90
34574;DHT22;20809;49.594;8.734;2023-03-23T09:53:49;13.90;99.90
34574;DHT22;20809;49.594;8.734;2023-03-23T09:57:03;14.20;99.90
34574;DHT22;20809;49.594;8.734;2023-03-23T10:03:41;14.30;99.90
34574;DHT22;20809;49.594;8.734;2023-03-23T10:06:47;14.50;99.90
34574;DHT22;20809;49.594;8.734;2023-03-23T10:09:58;14.60;99.90
34574;DHT22;20809;49.594;8.734;2023-03-23T10:16:55;14.70;99.90
34574;DHT22;20809;49.594;8.734;2023-03-23T10:26:57;14.60;99.90
34574;DHT22;20809;49.594;8.734;2023-03-23T10:30:27;14.80;99.90
34574;DHT22;20809;49.594;8.734;2023-03-23T10:33:48;14.80;99.90
34574;DHT22;20809;49.594;8.734;2023-03-23T10:37:01;15.00;99.90
34574;DHT22;20809;49.594;8.734;2023-03-23T10:40:05;15.30;99.90
34574;DHT22;20809;49.594;8.734;2023-03-23T10:43:11;15.60;99.90
34574;DHT22;20809;49.594;8.734;2023-03-23T10:49:38;15.70;99.90
34574;DHT22;20809;49.594;8.734;2023-03-23T10:52:43;15.50;99.90
34574;DHT22;20809;49.594;8.734;2023-03-23T10:55:45;15.20;99.90
34574;DHT22;20809;49.594;8.734;2023-03-23T10:58:47;15.20;99.90
34574;DHT22;20809;49.594;8.734;2023-03-23T11:01:57;15.10;99.90
34574;DHT22;20809;49.594;8.734;2023-03-23T11:05:01;14.90;99.90
34574;DHT22;20809;49.594;8.734;2023-03-23T11:08:13;15.00;99.90
34574;DHT22;20809;49.594;8.734;2023-03-23T11:11:20;14.90;99.90
34574;DHT22;20809;49.594;8.734;2023-03-23T11:17:27;14.90;99.90
34574;DHT22;20809;49.594;8.734;2023-03-23T11:20:35;14.80;99.90
34574;DHT22;20809;49.594;8.734;2023-03-23T11:23:41;14.70;99.90
34574;DHT22;20809;49.594;8.734;2023-03-23T11:26:44;14.60;99.90
34574;DHT22;20809;49.594;8.734;2023-03-23T11:29:55;14.50;99.90
34574;DHT22;20809;49.594;8.734;2023-03-23T11:33:00;14.40;99.90
34574;DHT22;20809;49.594;8.734;2023-03-23T11:36:03;14.30;99.90
34574;DHT22;20809;49.594;8.734;2023-03-23T11:39:28;14.20;99.90
34574;DHT22;20809;49.594;8.734;2023-03-23T11:45:35;13.90;99.90
34574;DHT22;20809;49.594;8.734;2023-03-23T11:49:00;13.80;99.90
34574;DHT22;20809;49.594;8.734;2023-03-23T11:55:55;13.70;99.90
34574;DHT22;20809;49.594;8.734;2023-03-23T11:59:14;13.80;99.90
34574;DHT22;20809;49.594;8.734;2023-03-23T12:02:39;13.90;99.90
34574;DHT22;20809;49.594;8.734;2023-03-23T12:20:17;14.30;99.90
34574;DHT22;20809;49.594;8.734;2023-03-23T12:23:26;14.50;99.90
34574;DHT22;20809;49.594;8.734;2023-03-23T12:30:09;14.40;99.90
34574;DHT22;20809;49.594;8.734;2023-03-23T12:53:44;14.50;99.90
34574;DHT22;20809;49.594;8.734;2023-03-23T13:00:23;14.70;99.90
34574;DHT22;20809;49.594;8.734;2023-03-23T13:03:43;15.00;99.90
34574;DHT22;20809;49.594;8.734;2023-03-23T13:06:47;15.00;99.90
34574;DHT22;20809;49.594;8.734;2023-03-23T13:13:47;15.00;99.90
34574;DHT22;20809;49.594;8.734;2023-03-23T13:20:32;15.30;99.90
34574;DHT22;20809;49.594;8.734;2023-03-23T13:23:42;15.40;99.90
34574;DHT22;20809;49.594;8.734;2023-03-23T13:26:50;15.20;99.90
34574;DHT22;20809;49.594;8.734;2023-03-23T13:29:58;15.00;99.90
34574;DHT22;20809;49.594;8.734;2023-03-23T13:33:12;14.80;99.90
34574;DHT22;20809;49.594;8.734;2023-03-23T13:36:17;14.50;99.90
34574;DHT22;20809;49.594;8.734;2023-03-23T13:39:30;14.40;99.90
34574;DHT22;20809;49.594;8.734;2023-03-23T13:42:51;14.30;99.90
34574;DHT22;20809;49.594;8.734;2023-03-23T13:46:12;14.10;99.90
34574;DHT22;20809;49.594;8.734;2023-03-23T13:49:21;14.10;99.90
34574;DHT22;20809;49.594;8.734;2023-03-23T13:56:13;14.10;99.90
34574;DHT22;20809;49.594;8.734;2023-03-23T13:59:46;14.00;99.90
34574;DHT22;20809;49.594;8.734;2023-03-23T14:02:50;14.20;99.90
34574;DHT22;20809;49.594;8.734;2023-03-23T14:06:03;14.20;99.90
34574;DHT22;20809;49.594;8.734;2023-03-23T14:09:22;14.30;99.90
34574;DHT22;20809;49.594;8.734;2023-03-23T14:12:30;14.20;99.90
34574;DHT22;20809;49.594;8.734;2023-03-23T14:15:59;14.20;99.90
34574;DHT22;20809;49.594;8.734;2023-03-23T14:22:27;14.10;99.90
34574;DHT22;20809;49.594;8.734;2023-03-23T14:25:32;14.10;99.90
34574;DHT22;20809;49.594;8.734;2023-03-23T14:28:42;14.10;99.90
34574;DHT22;20809;49.594;8.734;2023-03-23T14:31:53;14.00;99.90
34574;DHT22;20809;49.594;8.734;2023-03-23T14:35:05;14.10;99.90
34574;DHT22;20809;49.594;8.734;2023-03-23T14:38:16;14.10;99.90
34574;DHT22;20809;49.594;8.734;2023-03-23T14:41:27;14.00;99.90
34574;DHT22;20809;49.594;8.734;2023-03-23T14:44:35;14.00;99.90
34574;DHT22;20809;49.594;8.734;2023-03-23T14:47:46;14.10;99.90
34574;DHT22;20809;49.594;8.734;2023-03-23T14:50:57;14.10;99.90
34574;DHT22;20809;49.594;8.734;2023-03-23T14:54:00;14.10;99.90
34574;DHT22;20809;49.594;8.734;2023-03-23T14:57:17;14.10;99.90
34574;DHT22;20809;49.594;8.734;2023-03-23T15:00:27;14.10;99.90
34574;DHT22;20809;49.594;8.734;2023-03-23T15:03:37;14.10;99.90
34574;DHT22;20809;49.594;8.734;2023-03-23T15:06:43;14.10;99.90
34574;DHT22;20809;49.594;8.734;2023-03-23T15:09:46;14.10;99.90
34574;DHT22;20809;49.594;8.734;2023-03-23T15:12:49;14.10;99.90
34574;DHT22;20809;49.594;8.734;2023-03-23T15:16:00;14.00;99.90
34574;DHT22;20809;49.594;8.734;2023-03-23T15:19:05;13.90;99.90
34574;DHT22;20809;49.594;8.734;2023-03-23T15:22:29;13.90;99.90
34574;DHT22;20809;49.594;8.734;2023-03-23T15:25:33;13.90;99.90
34574;DHT22;20809;49.594;8.734;2023-03-23T15:28:44;13.90;99.90
34574;DHT22;20809;49.594;8.734;2023-03-23T15:31:55;13.90;99.90
34574;DHT22;20809;49.594;8.734;2023-03-23T15:35:09;13.90;99.90
34574;DHT22;20809;49.594;8.734;2023-03-23T15:41:26;14.00;99.90
34574;DHT22;20809;49.594;8.734;2023-03-23T15:44:35;14.00;99.90
34574;DHT22;20809;49.594;8.734;2023-03-23T15:47:48;14.00;99.90
34574;DHT22;20809;49.594;8.734;2023-03-23T15:50:55;13.90;99.90
34574;DHT22;20809;49.594;8.734;2023-03-23T15:54:00;13.90;99.90
34574;DHT22;20809;49.594;8.734;2023-03-23T15:57:05;13.90;99.90
34574;DHT22;20809;49.594;8.734;2023-03-23T16:00:15;13.90;99.90
34574;DHT22;20809;49.594;8.734;2023-03-23T16:03:29;13.80;99.90
34574;DHT22;20809;49.594;8.734;2023-03-23T16:06:38;13.90;99.90
34574;DHT22;20809;49.594;8.734;2023-03-23T16:09:41;14.00;99.90
34574;DHT22;20809;49.594;8.734;2023-03-23T16:12:47;14.00;99.90
34574;DHT22;20809;49.594;8.734;2023-03-23T16:15:57;14.10;99.90
34574;DHT22;20809;49.594;8.734;2023-03-23T16:19:07;14.20;99.90
34574;DHT22;20809;49.594;8.734;2023-03-23T16:22:13;14.20;99.90
34574;DHT22;20809;49.594;8.734;2023-03-23T16:25:17;14.10;99.90
34574;DHT22;20809;49.594;8.734;2023-03-23T16:28:20;14.10;99.90
34574;DHT22;20809;49.594;8.734;2023-03-23T16:31:27;14.00;99.90
34574;DHT22;20809;49.594;8.734;2023-03-23T16:34:31;13.90;99.90
34574;DHT22;20809;49.594;8.734;2023-03-23T16:37:37;13.90;99.90
34574;DHT22;20809;49.594;8.734;2023-03-23T16:40:44;13.90;99.90
34574;DHT22;20809;49.594;8.734;2023-03-23T16:43:52;13.80;99.90
34574;DHT22;20809;49.594;8.734;2023-03-23T16:46:58;13.80;99.90
34574;DHT22;20809;49.594;8.734;2023-03-23T16:50:03;13.80;99.90
34574;DHT22;20809;49.594;8.734;2023-03-23T16:53:08;13.70;99.90
34574;DHT22;20809;49.594;8.734;2023-03-23T16:56:20;13.70;99.90
34574;DHT22;20809;49.594;8.734;2023-03-23T16:59:30;13.70;99.90
34574;DHT22;20809;49.594;8.734;2023-03-23T17:02:39;13.70;99.90
34574;DHT22;20809;49.594;8.734;2023-03-23T17:05:46;13.70;99.90
34574;DHT22;20809;49.594;8.734;2023-03-23T17:08:52;13.70;99.90
34574;DHT22;20809;49.594;8.734;2023-03-23T17:11:58;13.60;99.90
34574;DHT22;20809;49.594;8.734;2023-03-23T17:15:02;13.60;99.90
34574;DHT22;20809;49.594;8.734;2023-03-23T17:18:12;13.60;99.90
34574;DHT22;20809;49.594;8.734;2023-03-23T17:21:16;13.60;99.90
34574;DHT22;20809;49.594;8.734;2023-03-23T17:24:21;13.50;99.90
34574;DHT22;20809;49.594;8.734;2023-03-23T17:27:25;13.50;99.90
34574;DHT22;20809;49.594;8.734;2023-03-23T17:30:34;13.50;99.90
34574;DHT22;20809;49.594;8.734;2023-03-23T17:33:37;13.50;99.90
34574;DHT22;20809;49.594;8.734;2023-03-23T17:36:40;13.50;99.90
34574;DHT22;20809;49.594;8.734;2023-03-23T17:39:43;13.50;99.90
34574;DHT22;20809;49.594;8.734;2023-03-23T17:42:48;13.50;99.90
34574;DHT22;20809;49.594;8.734;2023-03-23T17:45:53;13.40;99.90
34574;DHT22;20809;49.594;8.734;2023-03-23T17:49:02;13.50;99.90
34574;DHT22;20809;49.594;8.734;2023-03-23T17:52:10;13.40;99.90
34574;DHT22;20809;49.594;8.734;2023-03-23T17:55:16;13.40;99.90
34574;DHT22;20809;49.594;8.734;2023-03-23T17:58:21;13.40;99.90
34574;DHT22;20809;49.594;8.734;2023-03-23T18:01:24;13.40;99.90
34574;DHT22;20809;49.594;8.734;2023-03-23T18:04:28;13.30;99.90
34574;DHT22;20809;49.594;8.734;2023-03-23T18:07:32;13.40;99.90
34574;DHT22;20809;49.594;8.734;2023-03-23T18:10:36;13.20;99.90
34574;DHT22;20809;49.594;8.734;2023-03-23T18:13:41;13.10;99.90
34574;DHT22;20809;49.594;8.734;2023-03-23T18:16:44;13.20;99.90
34574;DHT22;20809;49.594;8.734;2023-03-23T18:19:48;13.20;99.90
34574;DHT22;20809;49.594;8.734;2023-03-23T18:22:54;13.20;99.90
34574;DHT22;20809;49.594;8.734;2023-03-23T18:25:58;13.20;99.90
34574;DHT22;20809;49.594;8.734;2023-03-23T18:29:00;13.30;99.90
34574;DHT22;20809;49.594;8.734;2023-03-23T18:32:06;13.20;99.90
34574;DHT22;20809;49.594;8.734;2023-03-23T18:35:10;13.20;99.90
34574;DHT22;20809;49.594;8.734;2023-03-23T18:38:14;13.20;99.90
34574;DHT22;20809;49.594;8.734;2023-03-23T18:41:16;13.10;99.90
34574;DHT22;20809;49.594;8.734;2023-03-23T18:44:19;13.10;99.90
34574;DHT22;20809;49.594;8.734;2023-03-23T18:47:21;13.10;99.90
34574;DHT22;20809;49.594;8.734;2023-03-23T18:50:23;13.10;99.90
34574;DHT22;20809;49.594;8.734;2023-03-23T18:53:25;13.10;99.90
34574;DHT22;20809;49.594;8.734;2023-03-23T18:56:28;13.10;99.90
34574;DHT22;20809;49.594;8.734;2023-03-23T18:59:31;13.00;99.90
34574;DHT22;20809;49.594;8.734;2023-03-23T19:02:34;12.90;99.90
34574;DHT22;20809;49.594;8.734;2023-03-23T19:05:41;12.80;99.90
34574;DHT22;20809;49.594;8.734;2023-03-23T19:08:47;12.90;99.90
34574;DHT22;20809;49.594;8.734;2023-03-23T19:11:50;12.90;99.90
34574;DHT22;20809;49.594;8.734;2023-03-23T19:14:53;12.90;99.90
34574;DHT22;20809;49.594;8.734;2023-03-23T19:17:55;12.80;99.90
34574;DHT22;20809;49.594;8.734;2023-03-23T19:20:56;12.80;99.90
34574;DHT22;20809;49.594;8.734;2023-03-23T19:23:58;12.80;99.90
34574;DHT22;20809;49.594;8.734;2023-03-23T19:26:59;12.80;99.90
34574;DHT22;20809;49.594;8.734;2023-03-23T19:30:00;12.80;99.90
34574;DHT22;20809;49.594;8.734;2023-03-23T19:33:01;12.80;99.90
34574;DHT22;20809;49.594;8.734;2023-03-23T19:36:02;12.80;99.90
34574;DHT22;20809;49.594;8.734;2023-03-23T19:39:04;12.80;99.90
34574;DHT22;20809;49.594;8.734;2023-03-23T19:42:06;12.80;99.90
34574;DHT22;20809;49.594;8.734;2023-03-23T19:45:07;12.80;99.90
34574;DHT22;20809;49.594;8.734;2023-03-23T19:48:08;12.80;99.90
34574;DHT22;20809;49.594;8.734;2023-03-23T19:51:11;12.70;99.90
34574;DHT22;20809;49.594;8.734;2023-03-23T19:54:12;12.80;99.90
34574;DHT22;20809;49.594;8.734;2023-03-23T19:57:12;12.70;99.90
34574;DHT22;20809;49.594;8.734;2023-03-23T20:00:13;12.70;99.90
34574;DHT22;20809;49.594;8.734;2023-03-23T20:03:15;12.60;99.90
34574;DHT22;20809;49.594;8.734;2023-03-23T20:06:18;12.60;99.90
34574;DHT22;20809;49.594;8.734;2023-03-23T20:09:19;12.60;99.90
34574;DHT22;20809;49.594;8.734;2023-03-23T20:12:20;12.60;99.90
34574;DHT22;20809;49.594;8.734;2023-03-23T20:15:20;12.50;99.90
34574;DHT22;20809;49.594;8.734;2023-03-23T20:18:22;12.40;99.90
34574;DHT22;20809;49.594;8.734;2023-03-23T20:21:23;12.40;99.90
34574;DHT22;20809;49.594;8.734;2023-03-23T20:24:24;12.30;99.90
34574;DHT22;20809;49.594;8.734;2023-03-23T20:27:25;12.40;99.90
34574;DHT22;20809;49.594;8.734;2023-03-23T20:30:26;12.40;99.90
34574;DHT22;20809;49.594;8.734;2023-03-23T20:33:26;12.50;99.90
34574;DHT22;20809;49.594;8.734;2023-03-23T20:36:32;12.50;99.90
34574;DHT22;20809;49.594;8.734;2023-03-23T20:39:36;12.60;99.90
34574;DHT22;20809;49.594;8.734;2023-03-23T20:42:41;12.70;99.90
34574;DHT22;20809;49.594;8.734;2023-03-23T20:45:43;12.80;99.90
34574;DHT22;20809;49.594;8.734;2023-03-23T20:48:44;12.90;99.90
34574;DHT22;20809;49.594;8.734;2023-03-23T20:51:46;13.10;99.90
34574;DHT22;20809;49.594;8.734;2023-03-23T20:54:49;13.20;99.90
34574;DHT22;20809;49.594;8.734;2023-03-23T20:57:53;13.50;99.90
34574;DHT22;20809;49.594;8.734;2023-03-23T21:00:58;13.60;99.90
34574;DHT22;20809;49.594;8.734;2023-03-23T21:04:01;13.80;99.90
34574;DHT22;20809;49.594;8.734;2023-03-23T21:07:03;13.80;99.90
34574;DHT22;20809;49.594;8.734;2023-03-23T21:10:04;13.90;99.90
34574;DHT22;20809;49.594;8.734;2023-03-23T21:13:05;14.10;99.90
34574;DHT22;20809;49.594;8.734;2023-03-23T21:16:08;14.20;99.90
34574;DHT22;20809;49.594;8.734;2023-03-23T21:19:18;14.30;99.90
34574;DHT22;20809;49.594;8.734;2023-03-23T21:22:22;14.20;99.90
34574;DHT22;20809;49.594;8.734;2023-03-23T21:25:25;14.20;99.90
34574;DHT22;20809;49.594;8.734;2023-03-23T21:28:31;14.30;99.90
34574;DHT22;20809;49.594;8.734;2023-03-23T21:31:34;14.30;99.90
34574;DHT22;20809;49.594;8.734;2023-03-23T21:34:37;14.30;99.90
34574;DHT22;20809;49.594;8.734;2023-03-23T21:37:39;14.30;99.90
34574;DHT22;20809;49.594;8.734;2023-03-23T21:40:42;14.30;99.90
34574;DHT22;20809;49.594;8.734;2023-03-23T21:43:46;14.30;99.90